createdAt,value
2018-10-12T00:01:00.729Z,2.77
2018-10-12T00:03:30.437Z,3.40
2018-10-12T00:06:01.703Z,3.07
2018-10-12T00:08:38.785Z,3.50
2018-10-12T00:11:09.083Z,3.93
2018-10-12T00:13:38.481Z,3.40
2018-10-12T00:16:07.811Z,3.80
2018-10-12T00:18:54.308Z,4.10
2018-10-12T00:21:25.036Z,3.90
2018-10-12T00:23:54.823Z,4.37
2018-10-12T00:26:34.260Z,4.93
2018-10-12T00:29:18.640Z,4.97
2018-10-12T00:31:52.083Z,4.73
2018-10-12T00:34:23.150Z,4.93
2018-10-12T00:36:53.993Z,5.27
2018-10-12T00:39:24.108Z,4.80
2018-10-12T00:41:54.462Z,5.70
2018-10-12T00:44:24.866Z,5.47
2018-10-12T00:46:54.438Z,5.57
2018-10-12T00:52:29.516Z,5.03
2018-10-12T00:55:02.005Z,5.23
2018-10-12T00:57:31.410Z,5.07
2018-10-12T01:03:04.673Z,4.53
2018-10-12T01:05:36.665Z,4.77
2018-10-12T01:08:07.402Z,4.10
2018-10-12T01:13:43.584Z,4.00
2018-10-12T01:16:13.639Z,4.47
2018-10-12T01:21:46.465Z,4.53
2018-10-12T01:24:16.426Z,4.10
2018-10-12T01:26:46.023Z,4.10
2018-10-12T01:29:15.193Z,4.53
2018-10-12T01:31:47.699Z,4.03
2018-10-12T01:34:18.449Z,3.57
2018-10-12T01:36:49.921Z,4.07
2018-10-12T01:39:37.313Z,4.07
2018-10-12T01:42:17.553Z,3.60
2018-10-12T01:44:48.410Z,4.00
2018-10-12T01:47:19.378Z,3.70
2018-10-12T01:49:50.043Z,3.70
2018-10-12T01:52:20.640Z,3.93
2018-10-12T01:54:51.663Z,3.90
2018-10-12T01:57:31.201Z,3.50
2018-10-12T02:02:50.766Z,3.37
2018-10-12T02:05:22.172Z,3.17
2018-10-12T02:07:53.952Z,3.00
2018-10-12T02:10:23.593Z,3.40
2018-10-12T02:12:53.167Z,3.50
2018-10-12T02:15:22.672Z,3.43
2018-10-12T02:20:40.602Z,3.30
2018-10-12T02:23:13.093Z,3.47
2018-10-12T02:25:43.718Z,3.30
2018-10-12T02:28:14.455Z,3.20
2018-10-12T02:30:45.411Z,2.80
2018-10-12T02:33:17.185Z,2.83
2018-10-12T02:35:46.412Z,3.20
2018-10-12T02:38:18.658Z,3.07
2018-10-12T02:40:48.055Z,3.10
2018-10-12T02:43:17.178Z,2.90
2018-10-12T02:45:48.956Z,3.03
2018-10-12T02:48:19.150Z,2.80
2018-10-12T02:50:48.236Z,2.73
2018-10-12T02:53:17.570Z,2.90
2018-10-12T02:55:46.929Z,3.23
2018-10-12T02:58:16.688Z,3.23
2018-10-12T03:00:50.158Z,3.10
2018-10-12T03:03:24.038Z,2.83
2018-10-12T03:05:57.685Z,2.77
2018-10-12T03:08:27.423Z,2.90
2018-10-12T03:10:57.718Z,2.83
2018-10-12T03:13:45.157Z,2.90
2018-10-12T03:16:20.490Z,2.80
2018-10-12T03:18:52.144Z,3.50
2018-10-12T03:21:35.015Z,3.07
2018-10-12T03:24:04.612Z,3.13
2018-10-12T03:26:43.927Z,3.67
2018-10-12T03:29:37.389Z,3.70
2018-10-12T03:32:16.472Z,3.73
2018-10-12T03:34:50.704Z,4.00
2018-10-12T03:37:25.320Z,3.53
2018-10-12T03:40:15.666Z,3.47
2018-10-12T03:42:45.393Z,4.07
2018-10-12T03:45:19.409Z,4.00
2018-10-12T03:47:52.457Z,3.53
2018-10-12T03:50:35.312Z,3.83
2018-10-12T03:53:15.237Z,4.00
2018-10-12T03:55:44.638Z,4.07
2018-10-12T03:58:16.060Z,3.63
2018-10-12T04:01:10.652Z,3.90
2018-10-12T04:04:00.785Z,3.47
2018-10-12T04:06:32.379Z,3.47
2018-10-12T04:12:07.496Z,3.63
2018-10-12T04:17:16.299Z,3.80
2018-10-12T04:19:55.824Z,4.37
2018-10-12T04:22:34.754Z,3.83
2018-10-12T04:25:15.330Z,4.43
2018-10-12T04:28:00.502Z,4.23
2018-10-12T04:30:46.604Z,4.10
2018-10-12T04:33:24.413Z,4.03
2018-10-12T04:36:04.492Z,4.47
2018-10-12T04:38:49.577Z,4.67
2018-10-12T04:41:23.521Z,4.60
2018-10-12T04:44:05.345Z,4.27
2018-10-12T04:46:44.011Z,4.10
2018-10-12T04:49:18.573Z,3.97
2018-10-12T04:51:57.766Z,3.90
2018-10-12T04:54:29.974Z,3.93
2018-10-12T04:57:04.222Z,3.70
2018-10-12T05:02:19.593Z,4.60
2018-10-12T05:04:48.247Z,4.60
2018-10-12T05:07:17.186Z,4.80
2018-10-12T05:09:45.974Z,4.57
2018-10-12T05:12:14.831Z,4.37
2018-10-12T05:14:43.711Z,4.03
2018-10-12T05:17:12.358Z,4.60
2018-10-12T05:19:41.248Z,4.60
2018-10-12T05:22:13.782Z,4.57
2018-10-12T05:24:42.876Z,4.23
2018-10-12T05:29:56.859Z,4.77
2018-10-12T05:32:27.161Z,4.90
2018-10-12T05:38:11.075Z,5.27
2018-10-12T05:40:41.432Z,5.67
2018-10-12T05:43:13.182Z,5.80
2018-10-12T05:45:42.632Z,6.80
2018-10-12T05:48:22.797Z,6.40
2018-10-12T05:50:53.916Z,6.53
2018-10-12T05:53:23.871Z,6.77
2018-10-12T06:01:24.261Z,6.30
2018-10-12T06:03:57.473Z,6.63
2018-10-12T06:06:27.690Z,6.67
2018-10-12T06:08:57.431Z,6.70
2018-10-12T06:11:27.345Z,6.90
2018-10-12T06:16:39.772Z,6.27
2018-10-12T06:19:09.796Z,6.20
2018-10-12T06:21:39.662Z,6.90
2018-10-12T06:24:24.806Z,7.20
2018-10-12T06:26:56.432Z,6.60
2018-10-12T06:29:25.656Z,7.60
2018-10-12T06:31:56.161Z,7.37
2018-10-12T06:34:25.475Z,7.30
2018-10-12T06:42:29.448Z,7.03
2018-10-12T06:44:59.096Z,7.63
2018-10-12T06:47:29.461Z,6.90
2018-10-12T06:49:59.712Z,7.23
2018-10-12T06:52:28.666Z,6.90
2018-10-12T06:57:39.926Z,6.17
2018-10-12T07:00:11.019Z,5.83
2018-10-12T07:02:41.666Z,6.10
2018-10-12T07:05:11.119Z,6.43
2018-10-12T07:10:20.773Z,5.67
2018-10-12T07:15:40.001Z,5.63
2018-10-12T07:18:10.600Z,5.43
2018-10-12T07:20:48.056Z,6.03
2018-10-12T08:32:15.794Z,4.67
2018-10-12T08:34:45.706Z,4.83
2018-10-12T08:37:14.567Z,4.50
2018-10-12T08:39:43.282Z,3.63
2018-10-12T08:42:11.990Z,3.70
2018-10-12T08:44:40.539Z,3.60
2018-10-12T08:47:09.035Z,3.27
2018-10-12T08:49:37.726Z,2.87
2018-10-12T08:52:06.456Z,2.93
2018-10-12T08:54:35.355Z,3.30
2018-10-12T08:57:04.190Z,3.57
2018-10-12T08:59:33.076Z,3.40
2018-10-12T09:02:02.984Z,3.60
2018-10-12T09:04:31.555Z,3.80
2018-10-12T09:07:00.113Z,3.90
2018-10-12T09:09:31.935Z,4.83
2018-10-12T09:12:00.687Z,4.90
2018-10-12T09:14:29.342Z,4.90
2018-10-12T09:16:58.103Z,5.20
2018-10-12T09:19:26.752Z,4.17
2018-10-12T09:21:55.623Z,5.07
2018-10-12T09:24:24.230Z,5.73
2018-10-12T09:26:52.954Z,5.70
2018-10-12T09:29:21.594Z,5.77
2018-10-12T09:31:49.994Z,5.37
2018-10-12T09:47:56.074Z,5.70
2018-10-12T09:50:24.684Z,6.07
2018-10-12T09:52:57.988Z,5.27
2018-10-12T09:55:26.577Z,4.90
2018-10-12T09:57:55.321Z,5.33
2018-10-12T10:00:29.393Z,5.03
2018-10-12T10:03:03.391Z,4.90
2018-10-12T10:05:32.548Z,4.83
2018-10-12T10:08:01.669Z,5.00
2018-10-12T10:10:30.158Z,4.77
2018-10-12T10:12:58.801Z,4.33
2018-10-12T10:15:27.407Z,4.13
2018-10-12T10:17:56.328Z,4.40
2018-10-12T10:20:25.000Z,4.67
2018-10-12T10:22:53.665Z,4.50
2018-10-12T10:25:22.233Z,4.00
2018-10-12T10:27:50.955Z,4.20
2018-10-12T10:30:20.149Z,3.83
2018-10-12T10:32:49.144Z,3.90
2018-10-12T10:35:17.277Z,4.00
2018-10-12T10:37:46.068Z,3.40
2018-10-12T10:40:14.748Z,3.57
2018-10-12T10:42:43.370Z,3.70
2018-10-12T10:45:11.952Z,3.60
2018-10-12T10:47:41.597Z,2.93
2018-10-12T10:50:10.296Z,3.10
2018-10-12T10:52:38.830Z,3.00
2018-10-12T10:55:07.290Z,3.40
2018-10-12T10:57:35.896Z,3.17
2018-10-12T11:00:04.569Z,3.23
2018-10-12T11:02:33.212Z,3.70
2018-10-12T11:05:01.958Z,3.10
2018-10-12T11:07:32.016Z,3.20
2018-10-12T11:10:00.607Z,2.77
2018-10-12T11:12:29.003Z,3.20
2018-10-12T11:14:58.001Z,3.03
2018-10-12T11:17:26.964Z,2.83
2018-10-12T11:19:55.709Z,2.80
2018-10-12T11:22:24.502Z,2.80
2018-10-12T11:24:53.352Z,3.00
2018-10-12T11:27:22.219Z,3.03
2018-10-12T11:29:51.206Z,2.63
2018-10-12T11:32:20.123Z,3.07
2018-10-12T11:34:49.033Z,2.63
2018-10-12T11:37:18.456Z,2.60
2018-10-12T11:39:47.864Z,2.93
2018-10-12T11:42:16.780Z,2.67
2018-10-12T11:44:45.581Z,2.60
2018-10-12T11:47:15.962Z,3.03
2018-10-12T11:49:45.457Z,3.17
2018-10-12T11:52:14.571Z,2.37
2018-10-12T11:54:44.277Z,2.80
2018-10-12T11:57:13.973Z,3.67
2018-10-12T11:59:43.094Z,2.80
2018-10-12T12:02:13.698Z,3.00
2018-10-12T12:04:44.743Z,2.60
2018-10-12T12:07:13.832Z,2.60
2018-10-12T12:09:43.007Z,3.13
2018-10-12T12:12:11.831Z,2.20
2018-10-12T12:14:41.588Z,3.20
2018-10-12T12:17:12.417Z,2.60
2018-10-12T12:19:41.410Z,2.53
2018-10-12T12:22:10.917Z,2.40
2018-10-12T12:24:39.693Z,2.10
2018-10-12T12:27:08.513Z,2.07
2018-10-12T12:29:37.447Z,2.30
2018-10-12T12:32:06.480Z,2.23
2018-10-12T12:34:35.423Z,2.27
2018-10-12T12:37:05.832Z,2.40
2018-10-12T12:39:35.336Z,2.20
2018-10-12T12:45:10.016Z,1.80
2018-10-12T12:47:39.443Z,1.70
2018-10-12T12:50:08.856Z,1.77
2018-10-12T12:52:40.692Z,1.57
2018-10-12T12:55:14.716Z,1.40
2018-10-12T12:57:45.093Z,1.70
2018-10-12T13:00:16.129Z,1.60
2018-10-12T13:02:45.254Z,1.60
2018-10-12T13:20:46.699Z,1.37
2018-10-12T13:23:20.739Z,1.40
2018-10-12T13:25:49.818Z,1.70
2018-10-12T13:28:18.755Z,1.50
2018-10-12T13:30:48.070Z,1.40
2018-10-12T13:33:19.656Z,1.63
2018-10-12T13:35:49.027Z,1.53
2018-10-12T13:38:18.768Z,2.00
2018-10-12T13:40:47.966Z,1.70
2018-10-12T13:43:16.795Z,1.57
2018-10-12T13:45:45.528Z,1.80
2018-10-12T13:48:16.686Z,1.70
2018-10-12T13:50:45.843Z,1.43
2018-10-12T13:53:14.459Z,1.80
2018-10-12T13:55:44.709Z,1.70
2018-10-12T13:58:13.669Z,1.87
2018-10-12T14:00:43.147Z,1.87
2018-10-12T14:03:12.244Z,1.57
2018-10-12T14:05:48.627Z,1.70
2018-10-12T14:08:17.606Z,1.43
2018-10-12T14:10:47.022Z,1.67
2018-10-12T14:13:15.841Z,1.87
2018-10-12T14:15:44.662Z,2.10
2018-10-12T14:18:14.703Z,2.17
2018-10-12T14:20:44.459Z,1.80
2018-10-12T14:23:14.090Z,2.03
2018-10-12T14:25:42.823Z,1.90
2018-10-12T14:28:11.724Z,2.10
2018-10-12T14:30:41.080Z,1.83
2018-10-12T14:33:10.215Z,2.20
2018-10-12T14:35:38.817Z,2.33
2018-10-12T14:38:22.509Z,1.90
2018-10-12T14:40:55.100Z,2.50
2018-10-12T14:43:32.425Z,2.90
2018-10-12T14:46:02.438Z,2.80
2018-10-12T14:48:32.000Z,2.30
2018-10-12T14:51:03.775Z,2.50
2018-10-12T14:53:33.387Z,2.40
2018-10-12T14:56:02.770Z,2.60
2018-10-12T14:58:31.671Z,2.53
2018-10-12T15:01:01.541Z,2.63
2018-10-12T15:03:30.436Z,2.47
2018-10-12T15:05:59.362Z,2.47
2018-10-12T15:08:28.351Z,2.27
2018-10-12T15:10:57.843Z,2.37
2018-10-12T15:13:26.592Z,2.70
2018-10-12T15:15:55.379Z,2.40
2018-10-12T15:18:24.095Z,2.40
2018-10-12T15:20:52.749Z,2.50
2018-10-12T15:23:21.295Z,2.50
2018-10-12T15:26:00.524Z,2.53
2018-10-12T15:28:29.294Z,2.70
2018-10-12T15:30:57.857Z,2.73
2018-10-12T15:33:26.537Z,2.70
2018-10-12T15:35:55.276Z,3.00
2018-10-12T15:38:24.828Z,3.27
2018-10-12T15:40:54.726Z,2.73
2018-10-12T15:43:23.738Z,3.00
2018-10-12T15:45:52.327Z,3.40
2018-10-12T15:48:21.281Z,2.93
2018-10-12T15:50:50.008Z,2.90
2018-10-12T15:53:19.201Z,2.93
2018-10-12T15:55:48.205Z,3.47
2018-10-12T15:58:17.087Z,2.90
2018-10-12T16:00:46.713Z,3.00
2018-10-12T16:03:16.732Z,3.00
2018-10-12T16:05:47.203Z,3.20
2018-10-12T16:08:17.049Z,3.07
2018-10-12T16:10:46.767Z,3.20
2018-10-12T16:13:15.339Z,3.50
2018-10-12T16:15:43.937Z,3.30
2018-10-12T16:18:12.469Z,3.03
2018-10-12T16:20:41.834Z,2.87
2018-10-12T16:23:10.336Z,3.27
2018-10-12T16:25:51.933Z,2.93
2018-10-12T16:28:22.003Z,2.87
2018-10-12T16:30:50.983Z,3.10
2018-10-12T16:33:20.204Z,3.37
2018-10-12T16:35:48.815Z,3.30
2018-10-12T16:38:17.330Z,4.07
2018-10-12T16:40:46.134Z,3.53
2018-10-12T16:46:03.948Z,4.57
2018-10-12T16:48:33.181Z,4.40
2018-10-12T16:51:01.662Z,4.13
2018-10-12T16:53:30.037Z,4.17
2018-10-12T16:55:59.636Z,5.00
2018-10-12T16:58:28.223Z,4.30
2018-10-12T17:00:57.432Z,4.67
2018-10-12T17:03:26.144Z,4.73
2018-10-12T17:05:54.734Z,5.13
2018-10-12T17:08:23.341Z,4.90
2018-10-12T17:10:51.951Z,4.77
2018-10-12T17:13:20.378Z,4.90
2018-10-12T17:15:49.149Z,5.00
2018-10-12T17:18:17.862Z,5.07
2018-10-12T17:20:46.450Z,5.50
2018-10-12T17:23:16.180Z,5.10
2018-10-12T17:25:44.845Z,5.60
2018-10-12T17:28:13.686Z,5.97
2018-10-12T17:30:42.550Z,6.00
2018-10-12T17:33:11.226Z,5.80
2018-10-12T17:35:46.349Z,5.50
2018-10-12T17:38:14.790Z,5.53
2018-10-12T17:40:43.426Z,5.80
2018-10-12T17:43:12.181Z,5.70
2018-10-12T17:45:40.799Z,5.80
2018-10-12T17:48:10.058Z,5.63
2018-10-12T17:50:38.890Z,5.70
2018-10-12T17:53:07.819Z,5.77
2018-10-12T17:55:36.315Z,5.70
2018-10-12T17:58:05.550Z,5.73
2018-10-12T18:00:34.508Z,6.20
2018-10-12T18:05:52.863Z,5.27
2018-10-12T18:08:21.696Z,5.70
2018-10-12T18:10:50.397Z,5.73
2018-10-12T18:13:18.825Z,5.93
2018-10-12T18:15:47.692Z,5.90
2018-10-12T18:18:17.272Z,5.80
2018-10-12T18:20:45.873Z,6.33
2018-10-12T18:23:17.168Z,6.13
2018-10-12T18:25:48.461Z,6.13
2018-10-12T18:28:21.565Z,5.87
2018-10-12T18:30:50.963Z,5.90
2018-10-12T18:33:20.108Z,6.33
2018-10-12T18:35:48.890Z,6.30
2018-10-12T18:38:18.401Z,5.60
2018-10-12T18:40:49.173Z,6.20
2018-10-12T18:43:19.273Z,6.07
2018-10-12T18:45:55.010Z,6.10
2018-10-12T18:48:23.914Z,6.30
2018-10-12T18:50:53.504Z,7.00
2018-10-12T18:53:22.152Z,6.23
2018-10-12T18:55:50.934Z,6.10
2018-10-12T18:58:23.762Z,6.37
2018-10-12T19:00:54.964Z,6.60
2018-10-12T19:03:23.974Z,6.30
2018-10-12T19:05:52.852Z,6.30
2018-10-12T19:08:22.216Z,6.43
2018-10-12T19:10:51.499Z,6.83
2018-10-12T19:13:20.755Z,6.20
2018-10-12T19:15:51.041Z,5.93
2018-10-12T19:18:21.157Z,6.03
2018-10-12T19:20:51.113Z,6.17
2018-10-12T19:23:31.593Z,6.20
2018-10-12T19:26:02.577Z,5.70
2018-10-12T19:28:31.919Z,5.87
2018-10-12T19:31:04.296Z,6.40
2018-10-12T19:33:36.731Z,6.07
2018-10-12T19:36:07.937Z,6.30
2018-10-12T19:38:38.590Z,6.57
2018-10-12T19:41:09.865Z,6.00
2018-10-12T19:43:39.865Z,6.30
2018-10-12T19:46:09.179Z,6.37
2018-10-12T19:48:40.282Z,6.43
2018-10-12T19:51:09.728Z,6.20
2018-10-12T19:53:38.703Z,6.43
2018-10-12T19:56:22.991Z,5.27
2018-10-12T19:58:51.944Z,5.37
2018-10-12T20:01:29.932Z,5.27
2018-10-12T20:04:00.352Z,5.00
2018-10-12T20:09:17.411Z,5.33
2018-10-12T20:11:46.717Z,4.77
2018-10-12T20:14:16.484Z,5.00
2018-10-12T20:17:21.950Z,4.83
2018-10-12T20:25:01.535Z,4.40
2018-10-12T20:27:54.795Z,5.13
2018-10-12T20:33:28.350Z,5.10
2018-10-12T20:36:04.782Z,4.63
2018-10-12T20:39:07.316Z,4.90
2018-10-12T20:42:30.114Z,4.77
2018-10-12T20:45:01.237Z,4.90
2018-10-12T21:59:35.878Z,5.70
2018-10-12T22:02:05.897Z,5.87
2018-10-12T22:04:39.905Z,5.40
2018-10-12T22:07:28.080Z,6.07
2018-10-12T22:10:03.946Z,4.77
2018-10-12T22:12:33.902Z,6.30
2018-10-12T22:15:14.448Z,5.70
2018-10-12T22:17:47.407Z,5.93
2018-10-12T23:08:54.431Z,5.40
2018-10-12T23:11:23.837Z,5.80
2018-10-12T23:13:53.546Z,5.50
2018-10-12T23:16:24.133Z,6.03
2018-10-12T23:18:56.650Z,5.73
2018-10-12T23:21:37.948Z,6.27
2018-10-12T23:24:10.956Z,6.10
2018-10-12T23:26:42.071Z,6.60
2018-10-12T23:29:13.231Z,5.83
2018-10-12T23:31:46.067Z,6.27
2018-10-12T23:34:17.927Z,5.70
2018-10-12T23:36:47.674Z,6.17
2018-10-12T23:39:21.828Z,6.13
2018-10-12T23:41:52.972Z,5.93
2018-10-12T23:44:23.761Z,6.03
2018-10-12T23:46:53.467Z,5.67
2018-10-12T23:49:32.938Z,6.77
2018-10-12T23:52:14.902Z,6.40
2018-10-12T23:54:59.356Z,6.10
2018-10-12T23:57:46.162Z,5.93
